Terminal Aerodrome Forecast
Issued by NWS

Home | Current Version | Previous Version | Text Only | Print | Product List | Glossary On
Versions: 1 2 3 4 5 6 7 8 9 10 11 12 13 14 15 16 17 18 19 20 21 22 23 24 25 26
000
FTUS44 KBMX 291132
TAFMGM
TAF
KMGM 291132Z 2912/3012 12003KT P6SM OVC003
      TEMPO 2912/2914 5SM BR SCT003 BKN060
     FM291400 VRB03KT P6SM BKN015
     FM291500 15005KT P6SM BKN100
     FM291900 16005KT P6SM VCTS BKN050CB
     FM300100 14003KT P6SM BKN120
      TEMPO 3010/3012 5SM BR=

USA.gov is the U.S. government's official web portal to all federal, state and local government web resources and services.